Погода Акапетагуана 2 недели

Чьяпас, Мексика

25 февраля-09 марта
  • 25февраля
    Сегодня
    +22°
    +36°
    Ясно и безоблачно
    ВремяПогодаТемператураВлажностьДавлениеВетер, м/сВероятность осадков
    00:00Ясно и безоблачно+25°C64 %755 мм1.9 м/с2 %
    03:00Ясно и безоблачно+24°C60 %755 мм1.7 м/с2 %
    06:00Ясно и безоблачно+22°C62 %755 мм1.5 м/с2 %
    09:00Ясно и безоблачно+27°C41 %756 мм0.7 м/с2 %
    12:00Ясно и безоблачно+35°C30 %755 мм3.1 м/с2 %
    15:00Ясно и безоблачно+35°C42 %753 мм3.8 м/с2 %
    18:00Ясно и безоблачно+32°C60 %754 мм2.0 м/с2 %
    21:00Ясно и безоблачно+29°C69 %755 мм0.6 м/с2 %
  • 26февраля
    Понедельник
    +20°
    +35°
    Ясно и безоблачно
    ВремяПогодаТемператураВлажностьДавлениеВетер, м/сВероятность осадков
    00:00Ясно и безоблачно+26°C65 %756 мм1.3 м/с2 %
    03:00Ясно и безоблачно+23°C61 %755 мм1.1 м/с2 %
    06:00Ясно и безоблачно+22°C61 %755 мм1.3 м/с2 %
    09:00Ясно и безоблачно+29°C41 %757 мм0.7 м/с2 %
    12:00Ясно и безоблачно+34°C35 %756 мм2.6 м/с2 %
    15:00Ясно и безоблачно+35°C40 %754 мм3.4 м/с3 %
    18:00Ясно и безоблачно+31°C53 %754 мм1.1 м/с3 %
    21:00Ясно и безоблачно+28°C61 %755 мм1.2 м/с2 %
  • 27февраля
    Вторник
    +22°
    +36°
    Ясно и безоблачно
    ВремяПогодаТемператураВлажностьДавлениеВетер, м/сВероятность осадков
    00:00Ясно и безоблачно+25°C56 %755 мм1.2 м/с2 %
    03:00Ясно и безоблачно+22°C52 %753 мм0.9 м/с2 %
    06:00Ясно и безоблачно+21°C50 %753 мм1.1 м/с2 %
    09:00Ясно и безоблачно+28°C42 %755 мм1.1 м/с2 %
    12:00Ясно и безоблачно+35°C34 %754 мм2.6 м/с2 %
    15:00Ясно и безоблачно+36°C35 %752 мм3.9 м/с2 %
    18:00Ясно и безоблачно+32°C53 %752 мм2.3 м/с2 %
    21:00Ясно и безоблачно+29°C68 %753 мм0.5 м/с2 %
  • 28февраля
    Среда
    +22°
    +36°
    Ясно и безоблачно
    ВремяПогодаТемператураВлажностьДавлениеВетер, м/сВероятность осадков
    00:00Ясно и безоблачно+26°C67 %753 мм0.7 м/с2 %
    03:00Ясно и безоблачно+24°C65 %752 мм0.9 м/с2 %
    06:00Ясно и безоблачно+23°C62 %753 мм0.9 м/с2 %
    09:00Ясно и безоблачно+29°C43 %755 мм0.8 м/с2 %
    12:00Ясно и безоблачно+36°C32 %754 мм3.0 м/с2 %
    15:00Ясно и безоблачно+36°C39 %752 мм4.5 м/с3 %
    18:00Ясно и безоблачно+32°C52 %753 мм2.9 м/с2 %
    21:00Ясно и безоблачно+30°C63 %754 мм0.8 м/с2 %
  • 29февраля
    Четверг
    +22°
    +36°
    Ясно и безоблачно
    ВремяПогодаТемператураВлажностьДавлениеВетер, м/сВероятность осадков
    00:00Ясно и безоблачно+27°C61 %754 мм1.1 м/с2 %
    03:00Ясно и безоблачно+23°C62 %753 мм1.0 м/с2 %
    06:00Ясно и безоблачно+23°C62 %754 мм1.1 м/с2 %
    09:00Ясно и безоблачно+29°C39 %755 мм1.3 м/с2 %
    12:00Ясно и безоблачно+35°C31 %754 мм3.0 м/с2 %
    15:00Ясно и безоблачно+35°C41 %752 мм3.4 м/с8 %
    18:00Ясно и безоблачно+32°C64 %753 мм1.5 м/с8 %
    21:00Ясно и безоблачно+29°C74 %754 мм1.4 м/с2 %
Мы используем cookies
Соглашаюсь